Date,TemperatureHighF,TemperatureAvgF,TemperatureLowF,DewpointHighF,DewpointAvgF,DewpointLowF,HumidityHigh,HumidityAvg,HumidityLow,PressureMaxIn,PressureMinIn,WindSpeedMaxMPH,WindSpeedAvgMPH,GustSpeedMaxMPH,PrecipitationSumIn
2013-1-1,55.6,51.5,48.9,51.5,48.3,45.9,96,89,78,30.11,29.92,20,4,20,0.02
2013-1-2,50.7,47.9,46.5,49.6,47.0,45.5,100,97,96,30.02,29.90,22,8,22,0.01
2013-1-3,44.3,43.2,41.6,38.9,36.9,35.1,83,79,76,30.21,30.10,19,9,19,0.02
2013-1-4,47.7,44.0,41.2,41.8,36.8,32.3,85,76,63,30.27,30.15,18,8,18,0.02
2013-1-5,46.5,43.4,40.3,41.2,35.6,30.0,88,74,59,30.37,30.21,22,8,22,0.00
2013-1-6,47.2,46.5,44.6,45.5,42.9,40.6,95,87,81,30.24,30.05,16,2,16,0.13
2013-1-7,48.6,46.5,44.3,44.8,40.9,38.8,95,81,72,30.42,30.09,24,11,24,0.13
2013-1-8,57.4,50.5,45.8,55.0,47.4,40.9,93,89,81,30.43,30.34,16,6,16,0.00
2013-1-9,61.2,54.1,49.2,56.3,51.6,47.8,96,92,83,30.41,30.32,11,2,11,0.00
2013-1-10,54.2,51.0,48.4,52.2,46.9,43.7,96,86,75,30.50,30.36,22,7,22,0.00
2013-1-11,69.3,59.1,48.5,62.9,55.8,45.1,97,89,75,30.43,30.12,18,5,18,0.26
2013-1-12,61.1,58.5,53.7,60.4,57.8,52.9,100,98,96,30.16,30.08,10,2,10,0.27
2013-1-13,68.7,59.6,52.2,64.9,58.2,51.7,99,95,86,30.15,30.08,14,2,14,0.01
2013-1-14,71.0,64.7,56.5,65.5,62.1,55.1,97,92,81,30.18,30.09,14,3,14,0.00
2013-1-15,63.4,54.4,50.5,61.8,53.5,49.7,98,97,93,30.18,30.06,22,7,22,0.01
2013-1-16,68.8,60.2,51.7,65.1,58.7,50.3,99,95,87,30.07,29.94,18,4,18,0.01
2013-1-17,61.5,54.2,46.0,60.9,53.5,44.5,99,98,94,29.99,29.77,42,11,42,0.83
2013-1-18,46.9,43.6,41.8,44.9,36.3,28.8,95,76,54,30.52,29.84,41,18,41,0.83
2013-1-19,52.2,46.6,42.1,48.2,41.9,35.0,96,84,75,30.46,30.15,20,6,20,0.00
2013-1-20,59.9,53.7,50.1,52.3,48.5,46.4,92,83,65,30.15,29.95,18,4,18,0.00
2013-1-21,59.4,53.7,48.1,52.3,47.0,40.6,89,78,54,30.05,29.84,19,5,19,0.00
2013-1-22,53.5,42.0,36.1,47.4,23.6,13.0,81,48,33,30.25,29.88,32,16,32,0.00
2013-1-23,40.7,34.1,30.6,28.2,16.8,10.4,69,49,41,30.35,30.11,22,8,22,0.00
2013-1-24,49.2,38.1,30.0,41.0,27.1,13.3,78,65,48,30.50,29.94,40,18,40,0.00
2013-1-25,38.9,33.4,29.8,37.3,27.5,16.8,95,79,58,30.48,30.05,25,8,25,0.39
2013-1-26,36.9,35.3,32.7,34.9,32.8,30.6,100,91,85,30.36,30.08,19,10,19,0.39
2013-1-27,39.8,38.0,36.2,32.9,30.0,27.5,85,73,64,30.55,30.36,23,10,23,0.00
2013-1-28,55.8,44.6,38.5,55.0,41.4,32.9,97,89,80,30.49,30.21,14,5,14,0.00
2013-1-29,62.6,55.3,47.2,57.5,53.6,46.1,98,94,82,30.21,30.10,14,5,14,0.01
2013-1-30,69.4,64.1,57.7,64.6,61.4,56.9,98,91,82,30.13,29.63,31,7,31,0.02
2013-1-31,68.8,55.8,48.8,65.3,46.9,33.8,98,73,49,30.02,29.46,40,15,40,0.20